CYZP

Sandspit Airport

Sandspit, , Canada
TAF CYZP 171238Z 1713/1801 17008KT P6SM SCT050 TEMPO 1713/1719 5SM -SHRA BR SCT020 BKN050 BECMG 1713/1715 15015G25KT FM171900 15018G28KT P6SM -RA SCT020 BKN040 OVC150 TEMPO 1719/1722 5SM -RA BR BKN020 OVC040 BECMG 1720/1722 14035G50KT FM172200 14035G50KT P6SM -RA SCT007 OVC025 TEMPO 1722/1801 2SM -RA BR BKN007 OVC015 RMK FCST BASED ON AUTO OBS. NXT FCST BY 171900Z
Issued Valid From Valid To
Dec-17 @ 12:38 UTC
(21 minutes ago)
Dec-17 @ 13:00 UTC
(in a few seconds)
Dec-18 @ 01:00 UTC
(in 12 hours)
Dec-17 @ 13:00 to Dec-18 @ 01:00
TAF CYZP 171238Z 1713/1801 17008KT P6SM SCT050
Wind Visibility Clouds
170° at 8 knots Greater than 6 miles
  • Scattered at 5,000' AGL
Temporary Dec-17 @ 13:00 to Dec-17 @ 19:00
TEMPO 1713/1719 5SM -SHRA BR SCT020 BKN050
Visibility Clouds Conditions
5 miles
  • Scattered at 2,000' AGL
  • Broken at 5,000' AGL
  • Light Rain
  • Mist
Becoming Dec-17 @ 13:00 to Dec-17 @ 19:00
BECMG 1713/1715 15015G25KT
Wind Visibility Clouds
150° at 15 knots
 Gusting to 25 knots
Greater than 6 miles
  • Scattered at 5,000' AGL
From Dec-17 @ 19:00 to Dec-17 @ 20:00
FM171900 15018G28KT P6SM -RA SCT020 BKN040 OVC150
Wind Visibility Clouds Conditions
150° at 18 knots
 Gusting to 28 knots
Greater than 6 miles
  • Scattered at 2,000' AGL
  • Broken at 4,000' AGL
  • Overcast at 15,000' AGL
  • Light Rain
Temporary Dec-17 @ 19:00 to Dec-17 @ 22:00
TEMPO 1719/1722 5SM -RA BR BKN020 OVC040
Visibility Clouds Conditions
5 miles
  • Broken at 2,000' AGL
  • Overcast at 4,000' AGL
  • Light Rain
  • Mist
Becoming Dec-17 @ 20:00 to Dec-17 @ 22:00
BECMG 1720/1722 14035G50KT
Wind Visibility Clouds Conditions
140° at 35 knots
 Gusting to 50 knots
Greater than 6 miles
  • Scattered at 2,000' AGL
  • Broken at 4,000' AGL
  • Overcast at 15,000' AGL
  • Light Rain
From Dec-17 @ 22:00 to Dec-18 @ 01:00
FM172200 14035G50KT P6SM -RA SCT007 OVC025
Wind Visibility Clouds Conditions
140° at 35 knots
 Gusting to 50 knots
Greater than 6 miles
  • Scattered at 700' AGL
  • Overcast at 2,500' AGL
  • Light Rain
Temporary Dec-17 @ 22:00 to Dec-18 @ 01:00
TEMPO 1722/1801 2SM -RA BR BKN007 OVC015 RMK FCST BASED ON AUTO OBS. NXT FCST BY 171900Z
Visibility Clouds Conditions
2 miles
  • Broken at 700' AGL
  • Overcast at 1,500' AGL
  • Light Rain
  • Mist
TAF CYZP 171238Z 1713/1801 17008KT P6SM SCT050 TEMPO 1713/1719 5SM -SHRA BR SCT020 BKN050 BECMG 1713/1715 15015G25KT FM171900 15018G28KT P6SM -RA SCT020 BKN040 OVC150 TEMPO 1719/1722 5SM -RA BR BKN020 OVC040 BECMG 1720/1722 14035G50KT FM172200 14035G50KT P6SM -RA SCT007 OVC025 TEMPO 1722/1801 2SM -RA BR BKN007 OVC015 RMK FCST BASED ON AUTO OBS. NXT FCST BY 171900Z
Issued Dec-17 @ 12:38 UTC
(21 minutes ago)
Valid From Dec-17 @ 13:00 UTC
(in a few seconds)
Valid To Dec-18 @ 01:00 UTC
(in 12 hours)
Dec-17 @ 13:00 - Dec-18 @ 01:00
Wind Visibility
170° at 8 knots Greater than 6 miles
Clouds
  • Scattered at 5,000' AGL
Temporary Dec-17 @ 13:00 - Dec-17 @ 19:00
Clouds
  • Scattered at 2,000' AGL
  • Broken at 5,000' AGL
Conditions
  • Light Rain
  • Mist
Becoming Dec-17 @ 13:00 - Dec-17 @ 19:00
Wind Visibility
150° at 15 knots
 Gusting to 25 knots
Greater than 6 miles
Clouds
  • Scattered at 5,000' AGL
From Dec-17 @ 19:00 - Dec-17 @ 20:00
Wind Visibility
150° at 18 knots
 Gusting to 28 knots
Greater than 6 miles
Clouds
  • Scattered at 2,000' AGL
  • Broken at 4,000' AGL
  • Overcast at 15,000' AGL
Conditions
  • Light Rain
Temporary Dec-17 @ 19:00 - Dec-17 @ 22:00
Clouds
  • Broken at 2,000' AGL
  • Overcast at 4,000' AGL
Conditions
  • Light Rain
  • Mist
Becoming Dec-17 @ 20:00 - Dec-17 @ 22:00
Wind Visibility
140° at 35 knots
 Gusting to 50 knots
Greater than 6 miles
Clouds
  • Scattered at 2,000' AGL
  • Broken at 4,000' AGL
  • Overcast at 15,000' AGL
Conditions
  • Light Rain
From Dec-17 @ 22:00 - Dec-18 @ 01:00
Wind Visibility
140° at 35 knots
 Gusting to 50 knots
Greater than 6 miles
Clouds
  • Scattered at 700' AGL
  • Overcast at 2,500' AGL
Conditions
  • Light Rain
Temporary Dec-17 @ 22:00 - Dec-18 @ 01:00
Clouds
  • Broken at 700' AGL
  • Overcast at 1,500' AGL
Conditions
  • Light Rain
  • Mist